Terminal Aerodrome Forecast
Issued by NWS

Home | Current Version | Previous Version | Text Only | Print | Product List | Glossary Off
Versions: 1 2 3 4 5 6 7 8 9 10 11 12 13 14 15 16 17 18 19 20 21 22 23 24 25 26 27 28 29

000
FTUS45 KBOU 191731
TAFBJC
TAF
KBJC 191731Z 1918/2018 VRB04KT P6SM FEW080 FEW120
     FM192000 15006KT P6SM FEW080 FEW120
     FM200100 27006KT P6SM FEW150 SCT200
     FM201400 30007KT P6SM FEW120 SCT200=

USA.gov is the U.S. government's official web portal to all federal, state and local government web resources and services.